Terminal Aerodrome Forecast
Issued by NWS

Home | Current Version | Previous Version | Text Only | Print | Product List | Glossary On
Versions: 1 2 3 4 5 6 7 8 9 10 11 12 13 14 15 16 17 18 19 20 21 22
000
FTUS46 KLOX 171700 RRA
TAFWJF
TAF
KWJF 171746Z 1718/1818 28011KT P6SM FEW045
     FM172100 27015G25KT P6SM SKC
     FM180900 27006KT P6SM SCT050=

USA.gov is the U.S. government's official web portal to all federal, state and local government web resources and services.